createdAt,value
2022-12-18T08:35:44.019Z,44.50
2022-12-18T08:38:12.456Z,45.49
2022-12-18T08:40:39.258Z,45.05
2022-12-18T08:43:24.562Z,44.86
2022-12-18T08:45:51.374Z,48.12
2022-12-18T08:48:22.190Z,47.68
2022-12-18T08:50:59.274Z,46.41
2022-12-18T08:53:29.272Z,47.02
2022-12-18T08:55:59.578Z,47.07
2022-12-18T08:58:26.291Z,45.35
2022-12-18T09:00:53.317Z,46.40
2022-12-18T09:03:20.589Z,45.60
2022-12-18T09:05:47.344Z,44.44
2022-12-18T09:08:14.092Z,45.91
2022-12-18T09:10:47.254Z,44.57
2022-12-18T09:13:14.201Z,45.50
2022-12-18T09:15:51.371Z,46.04
2022-12-18T09:18:19.276Z,44.42
2022-12-18T09:20:46.465Z,45.54
2022-12-18T09:23:13.921Z,46.17
2022-12-18T09:25:40.890Z,46.15
2022-12-18T09:28:11.289Z,48.79
2022-12-18T09:30:41.911Z,46.85
2022-12-18T09:33:09.308Z,48.16
2022-12-18T09:35:39.957Z,46.71
2022-12-18T09:38:07.132Z,45.69
2022-12-18T09:40:40.956Z,46.49
2022-12-18T09:43:08.495Z,48.08
2022-12-18T09:45:41.990Z,48.19
2022-12-18T09:48:12.096Z,47.90
2022-12-18T09:50:56.040Z,47.54
2022-12-18T09:53:27.613Z,47.26
2022-12-18T09:55:55.673Z,46.22
2022-12-18T09:58:28.485Z,46.82
2022-12-18T10:00:56.635Z,45.63
2022-12-18T10:03:23.787Z,44.52
2022-12-18T10:05:50.537Z,45.23
2022-12-18T10:08:29.732Z,43.60
2022-12-18T10:11:06.962Z,46.42
2022-12-18T10:14:04.315Z,47.27
2022-12-18T10:16:49.057Z,46.59
2022-12-18T10:19:28.453Z,46.03
2022-12-18T10:22:09.424Z,46.74
2022-12-18T10:24:55.032Z,47.00
2022-12-18T10:27:28.268Z,46.12
2022-12-18T10:29:57.348Z,44.37
2022-12-18T10:32:28.740Z,45.90
2022-12-18T10:35:00.504Z,45.92
2022-12-18T10:37:29.664Z,44.35
2022-12-18T10:40:08.680Z,44.82
2022-12-18T10:42:36.489Z,44.67
2022-12-18T10:45:14.500Z,46.38
2022-12-18T10:47:47.574Z,43.42
2022-12-18T10:51:09.188Z,43.10
2022-12-18T10:53:24.141Z,44.53
2022-12-18T10:55:52.727Z,43.22
2022-12-18T10:58:26.755Z,43.78
2022-12-18T11:01:05.339Z,42.67
2022-12-18T11:03:33.794Z,41.74
2022-12-18T11:06:21.426Z,42.69
2022-12-18T11:08:59.476Z,43.54
2022-12-18T11:11:26.748Z,42.22
2022-12-18T11:14:04.863Z,42.23
2022-12-18T11:16:37.956Z,48.12
2022-12-18T11:19:21.860Z,48.60
2022-12-18T11:21:52.338Z,46.63
2022-12-18T11:24:22.539Z,46.25
2022-12-18T11:26:57.808Z,45.35
2022-12-18T11:29:32.466Z,47.51
2022-12-18T11:32:22.733Z,47.87
2022-12-18T11:35:04.973Z,48.56
2022-12-18T11:37:33.045Z,49.94
2022-12-18T11:40:07.649Z,46.98
2022-12-18T11:42:42.531Z,45.25
2022-12-18T11:45:12.400Z,45.58
2022-12-18T11:47:43.537Z,45.46
2022-12-18T11:50:16.661Z,45.80
2022-12-18T11:52:43.482Z,44.58
2022-12-18T11:55:30.318Z,45.06
2022-12-18T11:58:03.268Z,44.37
2022-12-18T12:00:30.387Z,43.51
2022-12-18T12:03:03.076Z,43.06
2022-12-18T12:05:42.321Z,43.82
2022-12-18T12:08:38.542Z,42.56
2022-12-18T12:11:23.948Z,41.90
2022-12-18T12:13:58.061Z,41.99
2022-12-18T12:16:39.518Z,41.63
2022-12-18T12:19:18.675Z,41.37
2022-12-18T12:21:55.365Z,42.93
2022-12-18T12:24:30.908Z,42.41
2022-12-18T12:27:03.965Z,43.29
2022-12-18T12:29:57.027Z,42.65
2022-12-18T12:32:43.775Z,42.58
2022-12-18T12:35:12.889Z,43.52
2022-12-18T12:37:39.557Z,43.34
2022-12-18T12:40:26.718Z,42.58
2022-12-18T12:43:29.672Z,43.28
2022-12-18T12:46:05.792Z,42.34
2022-12-18T12:48:35.001Z,44.57
2022-12-18T12:51:03.853Z,48.21
2022-12-18T12:53:34.006Z,47.81
2022-12-18T12:56:02.429Z,46.06
2022-12-18T12:58:40.289Z,45.15
2022-12-18T13:01:21.533Z,45.70
2022-12-18T13:04:00.336Z,44.91
2022-12-18T13:06:27.143Z,46.76
2022-12-18T13:08:56.195Z,45.58
2022-12-18T13:12:17.541Z,46.34
2022-12-18T13:14:44.432Z,45.98
2022-12-18T13:17:18.595Z,46.17
2022-12-18T13:19:45.603Z,44.58
2022-12-18T13:22:23.509Z,46.27
2022-12-18T13:24:50.357Z,44.02
2022-12-18T13:27:52.775Z,43.40
2022-12-18T13:30:33.150Z,44.19
2022-12-18T13:33:23.370Z,43.62
2022-12-18T13:35:50.711Z,44.05
2022-12-18T13:38:20.735Z,47.15
2022-12-18T13:40:51.745Z,47.62
2022-12-18T13:43:21.801Z,49.31
2022-12-18T13:46:00.882Z,49.28
2022-12-18T13:48:29.170Z,54.22
2022-12-18T13:51:03.473Z,52.82
2022-12-18T13:53:35.538Z,55.12
2022-12-18T13:56:22.829Z,51.21
2022-12-18T13:59:25.313Z,51.93
2022-12-18T14:01:52.771Z,50.49
2022-12-18T14:04:22.082Z,50.49
2022-12-18T14:06:50.682Z,53.34
2022-12-18T14:09:25.331Z,51.94
2022-12-18T14:11:53.287Z,50.61
2022-12-18T14:14:39.945Z,49.96
2022-12-18T14:17:12.312Z,49.89
2022-12-18T14:19:43.102Z,50.61
2022-12-18T14:22:36.005Z,50.78
2022-12-18T14:25:22.350Z,50.95
2022-12-18T14:28:09.001Z,49.82
2022-12-18T14:30:40.194Z,51.54
2022-12-18T14:33:26.846Z,51.49
2022-12-18T14:36:01.806Z,51.42
2022-12-18T14:38:31.326Z,50.66
2022-12-18T14:41:01.132Z,50.32
2022-12-18T14:43:36.207Z,51.58
2022-12-18T14:46:04.136Z,51.14
2022-12-18T14:48:44.085Z,51.29
2022-12-18T14:51:28.347Z,50.53
2022-12-18T14:53:57.571Z,50.72
2022-12-18T14:56:33.935Z,51.66
2022-12-18T14:59:04.966Z,51.16
2022-12-18T15:01:34.496Z,51.53
2022-12-18T15:04:04.729Z,51.49
2022-12-18T15:06:34.714Z,50.87
2022-12-18T15:09:02.620Z,50.67
2022-12-18T15:11:41.269Z,50.76
2022-12-18T15:14:35.777Z,50.72
2022-12-18T15:17:04.813Z,52.10
2022-12-18T15:19:38.095Z,51.88
2022-12-18T15:22:06.847Z,52.77
2022-12-18T15:24:34.250Z,53.47
2022-12-18T15:27:02.108Z,53.46
2022-12-18T15:29:29.090Z,53.88
2022-12-18T15:32:02.059Z,53.35
2022-12-18T15:34:29.299Z,53.50
2022-12-18T15:36:58.539Z,53.03
2022-12-18T15:39:26.176Z,52.81
2022-12-18T15:42:11.580Z,52.56
2022-12-18T15:44:38.684Z,53.35
2022-12-18T15:47:11.508Z,53.08
2022-12-18T15:49:38.651Z,53.67
2022-12-18T15:52:05.700Z,53.83
2022-12-18T15:54:53.526Z,53.92
2022-12-18T15:57:26.253Z,54.55
2022-12-18T15:59:56.486Z,54.62
2022-12-18T16:02:25.734Z,54.00
2022-12-18T16:04:53.493Z,53.89
2022-12-18T16:07:25.127Z,54.08
2022-12-18T16:09:53.192Z,54.13
2022-12-18T16:12:24.073Z,54.79
2022-12-18T16:14:51.061Z,54.70
2022-12-18T16:17:19.538Z,55.72
2022-12-18T16:19:46.812Z,55.67
2022-12-18T16:22:31.880Z,56.01
2022-12-18T16:24:59.321Z,56.02
2022-12-18T16:27:26.202Z,55.52
2022-12-18T16:29:53.044Z,55.89
2022-12-18T16:32:20.800Z,56.28
2022-12-18T16:34:49.067Z,56.31
2022-12-18T16:37:17.369Z,58.04
2022-12-18T16:39:45.548Z,57.25
2022-12-18T16:42:20.279Z,57.34
2022-12-18T16:44:49.538Z,58.36
2022-12-18T16:47:19.008Z,58.73
2022-12-18T16:49:47.302Z,58.72
2022-12-18T16:52:14.915Z,58.75
2022-12-18T16:54:42.256Z,58.39
2022-12-18T16:57:10.885Z,58.41
2022-12-18T16:59:38.147Z,58.91
2022-12-18T17:02:14.535Z,58.65
2022-12-18T17:04:43.086Z,58.85
2022-12-18T17:07:10.672Z,58.17
2022-12-18T17:09:38.253Z,58.57
2022-12-18T17:12:05.495Z,58.55
2022-12-18T17:14:33.388Z,58.17
2022-12-18T17:17:22.998Z,58.02
2022-12-18T17:19:55.709Z,58.20
2022-12-18T17:22:24.852Z,57.89
2022-12-18T17:24:52.057Z,57.91
2022-12-18T17:27:21.168Z,57.85
2022-12-18T17:29:48.960Z,57.85
2022-12-18T17:32:17.306Z,57.99
2022-12-18T17:34:44.993Z,58.02
2022-12-18T17:37:12.090Z,59.85
2022-12-18T17:39:39.942Z,59.04
2022-12-18T17:42:08.182Z,60.22
2022-12-18T17:44:38.324Z,60.86
2022-12-18T17:47:06.591Z,61.07
2022-12-18T17:49:35.255Z,60.63
2022-12-18T17:52:02.338Z,60.30
2022-12-18T17:54:29.555Z,60.10
2022-12-18T17:56:56.757Z,59.76
2022-12-18T17:59:24.065Z,59.73
2022-12-18T18:01:51.475Z,60.48
2022-12-18T18:04:19.381Z,60.51
2022-12-18T18:06:46.667Z,60.79
2022-12-18T18:09:17.115Z,60.61
2022-12-18T18:12:03.489Z,60.48
2022-12-18T18:14:31.242Z,60.50
2022-12-18T18:17:04.225Z,60.47
2022-12-18T18:19:38.616Z,60.51
2022-12-18T18:22:08.708Z,60.53
2022-12-18T18:24:36.284Z,60.32
2022-12-18T18:27:04.629Z,60.34
2022-12-18T18:29:31.734Z,60.41
2022-12-18T18:32:01.961Z,60.04
2022-12-18T18:34:30.157Z,60.35
2022-12-18T18:37:02.052Z,59.93
2022-12-18T18:39:29.567Z,60.05
2022-12-18T18:41:56.642Z,60.31
2022-12-18T18:44:26.168Z,60.22
2022-12-18T18:46:57.033Z,59.98
2022-12-18T18:49:29.030Z,59.53
2022-12-18T18:51:56.703Z,60.09
2022-12-18T18:54:23.787Z,60.13
2022-12-18T18:59:38.503Z,59.77
2022-12-18T19:02:05.735Z,60.27
2022-12-18T19:04:35.697Z,60.87
2022-12-18T19:07:07.901Z,60.32
2022-12-18T19:09:38.048Z,60.19
2022-12-18T19:12:23.998Z,60.22
2022-12-18T19:14:51.000Z,60.33
2022-12-18T19:17:18.126Z,60.51
2022-12-18T19:19:46.767Z,60.04
2022-12-18T19:22:15.909Z,59.84
2022-12-18T19:24:42.753Z,60.46
2022-12-18T19:27:09.731Z,59.86
2022-12-18T19:29:36.865Z,59.81
2022-12-18T19:32:05.077Z,59.81
2022-12-18T19:34:32.084Z,59.61
2022-12-18T19:37:01.996Z,59.82
2022-12-18T19:39:29.210Z,60.17
2022-12-18T19:41:57.007Z,60.95
2022-12-18T19:44:24.257Z,60.37
2022-12-18T19:46:51.768Z,60.25
2022-12-18T19:49:18.903Z,60.37
2022-12-18T19:51:46.197Z,60.34
2022-12-18T19:54:17.255Z,60.36
2022-12-18T19:56:45.133Z,60.33
2022-12-18T19:59:12.264Z,60.52
2022-12-18T20:01:39.483Z,60.79
2022-12-18T20:04:08.101Z,61.09
2022-12-18T20:06:37.452Z,61.71
2022-12-18T20:09:06.849Z,62.82
2022-12-18T20:11:38.840Z,61.62
2022-12-18T20:14:21.551Z,61.13
2022-12-18T20:16:52.657Z,61.04
2022-12-18T20:19:23.489Z,62.22
2022-12-18T20:21:53.182Z,62.13
2022-12-18T20:24:23.216Z,61.94
2022-12-18T20:26:50.434Z,61.72
2022-12-18T20:29:17.675Z,61.96
2022-12-18T20:31:44.640Z,62.16
2022-12-18T20:34:18.101Z,62.32
2022-12-18T20:36:46.015Z,62.65
2022-12-18T20:39:13.508Z,63.17
2022-12-18T20:41:41.278Z,62.75
2022-12-18T20:44:20.685Z,62.33
2022-12-18T20:46:54.343Z,62.94
2022-12-18T20:49:21.408Z,63.11
2022-12-18T20:51:50.077Z,62.86
2022-12-18T20:54:20.125Z,62.99
2022-12-18T20:56:46.865Z,63.21
2022-12-18T20:59:13.705Z,62.75
2022-12-18T21:01:45.272Z,62.37
2022-12-18T21:04:20.411Z,63.32
2022-12-18T21:06:59.227Z,63.57
2022-12-18T21:09:33.712Z,65.19
2022-12-18T21:12:23.780Z,65.55
2022-12-18T21:14:50.608Z,64.69
2022-12-18T21:17:17.295Z,63.78
2022-12-18T21:19:44.309Z,63.66
2022-12-18T21:22:12.056Z,63.50
2022-12-18T21:24:39.131Z,63.96
2022-12-18T21:27:05.916Z,63.33
2022-12-18T21:29:33.482Z,63.65
2022-12-18T21:32:01.426Z,63.33
2022-12-18T21:34:31.068Z,63.01
2022-12-18T21:37:00.017Z,63.11
2022-12-18T21:39:27.739Z,62.99
2022-12-18T21:42:15.875Z,62.49
2022-12-18T21:44:42.750Z,61.92
2022-12-18T21:47:21.798Z,61.47
2022-12-18T21:49:53.737Z,61.45
2022-12-18T21:52:26.261Z,60.97
2022-12-18T21:55:08.609Z,61.28
2022-12-18T21:57:37.293Z,61.18
2022-12-18T22:00:04.754Z,61.32
2022-12-18T22:02:32.066Z,61.07
2022-12-18T22:04:59.071Z,61.13
2022-12-18T22:07:27.951Z,60.68
2022-12-18T22:09:55.160Z,60.43
2022-12-18T22:12:38.560Z,60.17
2022-12-18T22:15:11.828Z,59.58
2022-12-18T22:17:40.595Z,59.51
2022-12-18T22:20:09.470Z,59.82
2022-12-18T22:22:36.158Z,59.93
2022-12-18T22:25:03.004Z,59.91
2022-12-18T22:27:29.731Z,59.46
2022-12-18T22:30:05.942Z,59.80
2022-12-18T22:32:52.541Z,59.89
2022-12-18T22:35:19.448Z,59.88
2022-12-18T22:37:46.252Z,59.90
2022-12-18T22:40:28.361Z,59.82
2022-12-18T22:42:56.184Z,59.54
2022-12-18T22:45:23.038Z,59.20
2022-12-18T22:47:49.950Z,59.05
2022-12-18T22:50:17.094Z,59.24
2022-12-18T22:52:47.998Z,60.04
2022-12-18T22:55:14.680Z,60.85
2022-12-18T22:57:42.092Z,61.60
2022-12-18T23:00:15.793Z,61.18
2022-12-18T23:02:44.417Z,60.81
2022-12-18T23:05:11.730Z,61.28
2022-12-18T23:07:38.493Z,61.22
2022-12-18T23:10:06.570Z,61.29
2022-12-18T23:12:33.308Z,60.62
2022-12-18T23:15:02.725Z,60.44
2022-12-18T23:17:29.539Z,60.28
2022-12-18T23:19:56.246Z,60.66
2022-12-18T23:22:23.082Z,60.14
2022-12-18T23:24:49.795Z,62.70
2022-12-18T23:27:16.565Z,65.41
2022-12-18T23:29:43.256Z,64.30
2022-12-18T23:32:29.886Z,64.53
2022-12-18T23:35:00.382Z,67.29
2022-12-18T23:37:57.043Z,66.64
2022-12-18T23:40:13.839Z,67.06
2022-12-18T23:42:41.261Z,69.71
2022-12-18T23:45:14.182Z,68.40
2022-12-18T23:47:48.265Z,69.88
2022-12-18T23:50:17.674Z,69.86
2022-12-18T23:52:44.361Z,70.58
2022-12-18T23:55:11.119Z,70.33
2022-12-18T23:57:37.880Z,69.30
